Wales, North Dakota
Current Conditions -  °F | °C
As of 9:15 PM on Thursday 27 Nov 2014 (Local Time) from KD55 Reporting Station
Overcast Overcast  
Wind Chill: -9°   Ceiling: 400
Heat Index:   Visibility: 10mi
Dew Point:   Wind: 13mph
Humidity: 79%   Direction: 170°S
Pressure: 30.05"   Gusts: NA
Location:  48.9°N, 98.6°W
Report Text: KD55 280315Z AUTO 17011KT 10SM OVC004 M14/M17 A3005 RMK AO2
Loading
Personal Weather Stations






























Interactive Weather Map New forecast layout! Learn more

10-Day Weather Forecast

Advertisements
Track Severe Weather on mobile